Time;durP1;ratioP1;P1;durP2;ratioP2;P2;SDS_P1;SDS_P2;PMS_P1;PMS_P2;Temp;Humidity;BMP_temperature;BMP_pressure;BME280_temperature;BME280_humidity;BME280_pressure;Samples;Min_cycle;Max_cycle;Signal;HPM_P1;HPM_P2
2021/10/15 00:00:46;;;;;;;;;;;18.70;62.30;;;;;;5043715;28;19913;-56
2021/10/15 00:03:11;;;;;;;;;;;18.70;62.30;;;;;;5041453;28;20274;-52
2021/10/15 00:05:37;;;;;;;;;;;18.70;62.20;;;;;;5042751;28;19921;-55
2021/10/15 00:08:02;;;;;;;;;;;18.70;62.20;;;;;;5040768;28;20405;-51
2021/10/15 00:10:28;;;;;;;;;;;18.70;62.20;;;;;;5042906;28;19939;-53
2021/10/15 00:12:53;;;;;;;;;;;18.70;62.10;;;;;;5042037;28;19923;-54
2021/10/15 00:15:19;;;;;;;;;;;18.70;62.20;;;;;;5042502;28;19958;-51
2021/10/15 00:17:44;;;;;;;;;;;18.70;62.20;;;;;;5043049;28;20366;-52
2021/10/15 00:20:10;;;;;;;;;;;18.70;62.20;;;;;;5042532;28;19920;-52
2021/10/15 00:22:35;;;;;;;;;;;18.70;62.20;;;;;;5042821;28;19921;-54
2021/10/15 00:25:01;;;;;;;;;;;18.70;62.10;;;;;;5042628;28;19913;-56
2021/10/15 00:27:26;;;;;;;;;;;18.70;62.10;;;;;;5042874;28;19927;-57
2021/10/15 00:29:52;;;;;;;;;;;18.60;62.10;;;;;;5042988;28;19932;-53
2021/10/15 00:32:17;;;;;;;;;;;18.70;62.10;;;;;;5042282;28;20262;-55
2021/10/15 00:34:43;;;;;;;;;;;18.70;62.80;;;;;;5043234;28;20002;-57
2021/10/15 00:37:08;;;;;;;;;;;18.60;62.10;;;;;;5042195;28;20316;-54
2021/10/15 00:39:34;;;;;;;;;;;18.70;62.10;;;;;;5042321;28;19917;-53
2021/10/15 00:41:59;;;;;;;;;;;18.60;62.10;;;;;;5042550;28;19944;-52
2021/10/15 00:44:25;;;;;;;;;;;18.70;62.10;;;;;;5042262;28;19920;-52
2021/10/15 00:46:50;;;;;;;;;;;18.70;62.10;;;;;;5042683;28;19917;-54
2021/10/15 00:49:16;;;;;;;;;;;18.60;62.00;;;;;;5042559;28;19917;-53
2021/10/15 00:51:42;;;;;;;;;;;18.70;62.10;;;;;;5041754;28;19913;-57
2021/10/15 00:54:08;;;;;;;;;;;18.70;62.10;;;;;;5037763;28;19928;-57
2021/10/15 00:56:33;;;;;;;;;;;18.70;62.10;;;;;;5038665;28;19913;-56
2021/10/15 00:58:59;;;;;;;;;;;18.70;62.00;;;;;;5041072;28;19917;-56
2021/10/15 01:01:24;;;;;;;;;;;18.70;62.00;;;;;;5039272;28;19949;-59
2021/10/15 01:03:50;;;;;;;;;;;18.70;62.10;;;;;;5040660;28;19979;-56
2021/10/15 01:06:15;;;;;;;;;;;18.60;62.00;;;;;;5040580;28;19912;-51
2021/10/15 01:08:43;;;;;;;;;;;18.60;61.90;;;;;;5041718;28;19917;-57
2021/10/15 01:11:09;;;;;;;;;;;18.60;61.90;;;;;;5042087;28;20328;-56
2021/10/15 01:13:34;;;;;;;;;;;18.60;62.00;;;;;;5042978;28;19913;-51
2021/10/15 01:16:03;;;;;;;;;;;18.60;61.90;;;;;;5039943;28;19921;-53
2021/10/15 01:18:29;;;;;;;;;;;18.60;61.90;;;;;;5041431;28;20177;-54
2021/10/15 01:20:54;;;;;;;;;;;18.60;61.90;;;;;;5040513;28;19917;-54
2021/10/15 01:23:19;;;;;;;;;;;18.60;61.90;;;;;;5042494;28;19920;-57
2021/10/15 01:25:45;;;;;;;;;;;18.60;61.90;;;;;;5046287;28;19913;-56
2021/10/15 01:28:10;;;;;;;;;;;18.60;62.00;;;;;;5045540;28;20358;-54
2021/10/15 01:30:36;;;;;;;;;;;18.60;62.00;;;;;;5045980;28;19913;-57
2021/10/15 01:33:01;;;;;;;;;;;18.60;62.10;;;;;;5046255;28;19993;-51
2021/10/15 01:35:27;;;;;;;;;;;18.60;62.10;;;;;;5045352;28;19913;-50
2021/10/15 01:37:52;;;;;;;;;;;18.50;62.10;;;;;;5045065;28;19918;-55
2021/10/15 01:40:17;;;;;;;;;;;18.50;62.10;;;;;;5044994;28;19944;-60
2021/10/15 01:42:55;;;;;;;;;;;18.50;62.20;;;;;;5046366;28;19919;-52
2021/10/15 01:45:21;;;;;;;;;;;18.50;62.20;;;;;;5044243;28;19913;-55
2021/10/15 01:47:47;;;;;;;;;;;18.50;62.30;;;;;;5045131;28;19919;-54
2021/10/15 01:50:12;;;;;;;;;;;18.40;62.40;;;;;;5045152;28;19928;-52
2021/10/15 01:52:38;;;;;;;;;;;18.40;63.00;;;;;;5045465;28;20382;-51
2021/10/15 01:55:06;;;;;;;;;;;18.40;62.50;;;;;;5043974;28;20035;-53
2021/10/15 01:57:32;;;;;;;;;;;18.40;62.60;;;;;;5044919;28;19914;-50
2021/10/15 01:59:57;;;;;;;;;;;18.40;62.60;;;;;;5044975;28;19919;-56
2021/10/15 02:02:23;;;;;;;;;;;18.30;62.60;;;;;;5045367;28;19917;-54
2021/10/15 02:04:48;;;;;;;;;;;18.30;62.70;;;;;;5045025;28;19912;-52
2021/10/15 02:07:13;;;;;;;;;;;18.30;62.80;;;;;;5045579;28;20652;-52
2021/10/15 02:09:39;;;;;;;;;;;18.30;62.80;;;;;;5044904;28;19979;-54
2021/10/15 02:12:05;;;;;;;;;;;18.30;62.80;;;;;;5045400;28;19913;-56
2021/10/15 02:14:30;;;;;;;;;;;18.20;63.50;;;;;;5044864;28;20394;-56
2021/10/15 02:16:56;;;;;;;;;;;18.30;62.90;;;;;;5045123;28;19943;-53
2021/10/15 02:19:21;;;;;;;;;;;18.20;62.90;;;;;;5044737;28;19913;-53
2021/10/15 02:21:47;;;;;;;;;;;18.30;63.00;;;;;;5045174;28;20375;-53
2021/10/15 02:24:12;;;;;;;;;;;18.20;62.80;;;;;;5044552;28;19917;-50
2021/10/15 02:26:37;;;;;;;;;;;18.20;62.70;;;;;;5042766;28;19920;-51
2021/10/15 02:29:03;;;;;;;;;;;18.30;62.70;;;;;;5044376;28;19917;-55
2021/10/15 02:31:29;;;;;;;;;;;18.30;62.70;;;;;;5044493;28;19940;-50
2021/10/15 02:33:54;;;;;;;;;;;18.30;62.70;;;;;;5043670;28;20012;-50
2021/10/15 02:36:20;;;;;;;;;;;18.30;62.70;;;;;;5041680;28;19913;-53
2021/10/15 02:38:46;;;;;;;;;;;18.20;62.80;;;;;;5045403;28;19913;-56
2021/10/15 02:41:12;;;;;;;;;;;18.20;62.90;;;;;;5044064;28;19938;-52
2021/10/15 02:43:37;;;;;;;;;;;18.20;63.00;;;;;;5044876;28;19913;-54
2021/10/15 02:46:03;;;;;;;;;;;18.10;63.00;;;;;;5044435;28;19919;-54
2021/10/15 02:48:28;;;;;;;;;;;18.20;63.10;;;;;;5044634;28;19978;-54
2021/10/15 02:50:53;;;;;;;;;;;18.20;63.10;;;;;;5044002;28;19920;-55
2021/10/15 02:53:19;;;;;;;;;;;18.10;63.20;;;;;;5042931;28;19917;-52
2021/10/15 02:55:44;;;;;;;;;;;18.10;63.30;;;;;;5044022;28;19917;-53
2021/10/15 02:58:10;;;;;;;;;;;18.10;63.30;;;;;;5042639;28;19913;-57
2021/10/15 03:00:35;;;;;;;;;;;18.10;63.30;;;;;;5044171;28;19920;-50
2021/10/15 03:03:01;;;;;;;;;;;18.10;63.30;;;;;;5044408;28;19913;-52
2021/10/15 03:05:26;;;;;;;;;;;18.10;63.30;;;;;;5043715;28;20309;-55
2021/10/15 03:07:51;;;;;;;;;;;18.10;63.20;;;;;;5043893;28;19916;-55
2021/10/15 03:10:17;;;;;;;;;;;18.10;63.10;;;;;;5044228;28;19917;-54
2021/10/15 03:12:42;;;;;;;;;;;18.20;63.10;;;;;;5044192;28;20003;-55
2021/10/15 03:15:08;;;;;;;;;;;18.20;63.00;;;;;;5043562;28;19968;-52
2021/10/15 03:17:34;;;;;;;;;;;18.20;63.00;;;;;;5043842;28;19920;-52
2021/10/15 03:19:59;;;;;;;;;;;18.20;62.90;;;;;;5041337;28;19912;-56
2021/10/15 03:22:25;;;;;;;;;;;18.30;62.80;;;;;;5042302;28;20529;-55
2021/10/15 03:24:50;;;;;;;;;;;18.20;62.70;;;;;;5043477;28;19940;-53
2021/10/15 03:27:15;;;;;;;;;;;18.20;62.70;;;;;;5043806;28;19917;-56
2021/10/15 03:29:41;;;;;;;;;;;18.30;62.60;;;;;;5042544;28;19924;-54
2021/10/15 03:32:06;;;;;;;;;;;18.30;62.50;;;;;;5043453;28;20377;-51
2021/10/15 03:34:32;;;;;;;;;;;18.30;62.50;;;;;;5043043;28;19913;-50
2021/10/15 03:36:57;;;;;;;;;;;18.30;62.40;;;;;;5043317;28;19917;-54
2021/10/15 03:39:23;;;;;;;;;;;18.30;62.40;;;;;;5040230;28;19924;-55
2021/10/15 03:41:48;;;;;;;;;;;18.40;62.40;;;;;;5044366;28;20351;-55
2021/10/15 03:44:13;;;;;;;;;;;18.40;62.30;;;;;;5043193;28;20291;-56
2021/10/15 03:46:39;;;;;;;;;;;18.40;62.20;;;;;;5042381;28;19912;-54
2021/10/15 03:49:04;;;;;;;;;;;18.40;62.20;;;;;;5043365;28;19924;-51
2021/10/15 03:51:30;;;;;;;;;;;18.40;62.10;;;;;;5043080;28;19913;-54
2021/10/15 03:53:55;;;;;;;;;;;18.40;62.20;;;;;;5041512;28;19920;-55
2021/10/15 03:56:21;;;;;;;;;;;18.40;62.00;;;;;;5041743;28;19920;-52
2021/10/15 03:58:46;;;;;;;;;;;18.40;62.00;;;;;;5041922;28;19916;-50
2021/10/15 04:01:12;;;;;;;;;;;18.40;62.00;;;;;;5042422;28;20414;-56
2021/10/15 04:03:37;;;;;;;;;;;18.50;62.00;;;;;;5043192;28;19917;-52
2021/10/15 04:06:03;;;;;;;;;;;18.50;62.00;;;;;;5041978;28;19920;-56
2021/10/15 04:08:28;;;;;;;;;;;18.50;62.00;;;;;;5041142;28;19924;-56
2021/10/15 04:10:53;;;;;;;;;;;18.50;61.90;;;;;;5041018;28;19912;-54
2021/10/15 04:13:19;;;;;;;;;;;18.50;61.90;;;;;;5041121;28;19974;-61
2021/10/15 04:15:44;;;;;;;;;;;18.50;61.90;;;;;;5043135;28;20267;-53
2021/10/15 04:18:10;;;;;;;;;;;18.50;61.90;;;;;;5042716;28;19912;-54
2021/10/15 04:20:35;;;;;;;;;;;18.50;61.80;;;;;;5042930;28;19917;-52
2021/10/15 04:23:01;;;;;;;;;;;18.50;61.80;;;;;;5043088;28;20442;-52
2021/10/15 04:25:26;;;;;;;;;;;18.50;61.80;;;;;;5042402;28;19913;-50
2021/10/15 04:27:51;;;;;;;;;;;18.50;61.70;;;;;;5042014;28;19917;-55
2021/10/15 04:30:17;;;;;;;;;;;18.50;61.80;;;;;;5042515;28;19924;-55
2021/10/15 04:32:42;;;;;;;;;;;18.50;61.80;;;;;;5042781;28;19921;-50
2021/10/15 04:35:08;;;;;;;;;;;18.50;61.80;;;;;;5042212;28;19913;-52
2021/10/15 04:37:33;;;;;;;;;;;18.60;61.80;;;;;;5040587;28;19942;-57
2021/10/15 04:39:59;;;;;;;;;;;18.60;61.90;;;;;;5041929;28;19967;-56
2021/10/15 04:42:24;;;;;;;;;;;18.50;62.20;;;;;;5042764;28;19975;-55
2021/10/15 04:44:51;;;;;;;;;;;18.50;62.30;;;;;;5042080;28;19913;-54
2021/10/15 04:47:17;;;;;;;;;;;18.50;62.20;;;;;;5042500;28;20394;-56
2021/10/15 04:49:42;;;;;;;;;;;18.50;62.20;;;;;;5041290;28;20033;-56
2021/10/15 04:52:08;;;;;;;;;;;18.50;62.20;;;;;;5041915;28;19917;-53
2021/10/15 04:54:33;;;;;;;;;;;18.50;62.20;;;;;;5042049;28;19913;-57
2021/10/15 04:56:59;;;;;;;;;;;18.60;62.30;;;;;;5039979;28;20393;-50
2021/10/15 04:59:24;;;;;;;;;;;18.50;62.20;;;;;;5040449;28;19967;-53
2021/10/15 05:01:50;;;;;;;;;;;18.50;62.20;;;;;;5041710;28;19913;-55
2021/10/15 05:04:15;;;;;;;;;;;18.60;62.20;;;;;;5042740;28;19926;-58
2021/10/15 05:06:42;;;;;;;;;;;18.60;62.10;;;;;;5041259;28;19917;-55
2021/10/15 05:11:33;;;;;;;;;;;18.60;62.10;;;;;;5042627;28;19917;-55
2021/10/15 05:13:59;;;;;;;;;;;18.60;62.00;;;;;;5042717;28;19920;-56
2021/10/15 05:16:25;;;;;;;;;;;18.60;61.90;;;;;;5040497;28;19924;-57
2021/10/15 05:18:50;;;;;;;;;;;18.60;61.90;;;;;;5041819;28;19912;-58
2021/10/15 05:21:16;;;;;;;;;;;18.60;61.80;;;;;;5042267;28;19923;-52
2021/10/15 05:23:41;;;;;;;;;;;18.60;61.80;;;;;;5042327;28;20592;-53
2021/10/15 05:26:07;;;;;;;;;;;18.70;61.70;;;;;;5041685;28;19920;-55
2021/10/15 05:28:32;;;;;;;;;;;18.60;61.60;;;;;;5041902;28;19919;-56
2021/10/15 05:30:58;;;;;;;;;;;18.70;61.70;;;;;;5039382;28;19913;-52
2021/10/15 05:33:23;;;;;;;;;;;18.70;61.70;;;;;;5041218;28;19935;-54
2021/10/15 05:35:49;;;;;;;;;;;18.60;61.60;;;;;;5041432;28;19943;-53
2021/10/15 05:38:14;;;;;;;;;;;18.70;61.80;;;;;;5040876;28;21782;-55
2021/10/15 05:40:40;;;;;;;;;;;18.70;62.60;;;;;;5041947;28;19920;-56
2021/10/15 05:43:05;;;;;;;;;;;18.70;63.20;;;;;;5042032;28;19921;-54
2021/10/15 05:45:31;;;;;;;;;;;18.60;62.40;;;;;;5035321;28;19959;-56
2021/10/15 05:47:56;;;;;;;;;;;18.60;62.30;;;;;;5040426;28;19913;-57
2021/10/15 05:50:24;;;;;;;;;;;18.60;62.20;;;;;;5041262;28;20267;-52
2021/10/15 05:52:50;;;;;;;;;;;18.60;62.00;;;;;;5033820;28;19921;-55
2021/10/15 06:00:22;;;;;;;;;;;18.60;61.70;;;;;;5041515;28;19919;-55
2021/10/15 06:02:48;;;;;;;;;;;18.60;61.60;;;;;;5041685;28;19912;-59
2021/10/15 06:15:45;;;;;;;;;;;18.60;62.10;;;;;;5042900;23;19971;-60
2021/10/15 06:18:16;;;;;;;;;;;18.50;63.00;;;;;;5044231;28;19920;-59
2021/10/15 06:20:41;;;;;;;;;;;18.50;63.50;;;;;;5044036;28;19940;-61
2021/10/15 06:23:07;;;;;;;;;;;18.50;63.80;;;;;;5043932;28;20429;-51
2021/10/15 06:25:32;;;;;;;;;;;18.50;64.40;;;;;;5044525;28;19989;-58
2021/10/15 06:28:02;;;;;;;;;;;18.60;64.40;;;;;;5042580;28;19924;-57
2021/10/15 06:30:27;;;;;;;;;;;18.50;65.40;;;;;;5044526;28;19928;-55
2021/10/15 06:32:53;;;;;;;;;;;18.50;66.40;;;;;;5045212;28;19917;-57
2021/10/15 06:35:19;;;;;;;;;;;18.50;65.70;;;;;;5044633;28;20286;-56
2021/10/15 06:37:44;;;;;;;;;;;18.50;64.60;;;;;;5044250;28;20001;-59
2021/10/15 06:40:10;;;;;;;;;;;18.50;64.20;;;;;;5043646;28;19920;-54
2021/10/15 06:42:35;;;;;;;;;;;18.60;64.10;;;;;;5043879;28;19917;-54
2021/10/15 06:45:01;;;;;;;;;;;18.60;63.80;;;;;;5044532;28;19920;-55
2021/10/15 06:47:28;;;;;;;;;;;18.60;63.30;;;;;;5044263;28;19916;-57
2021/10/15 06:49:54;;;;;;;;;;;18.60;62.80;;;;;;5044615;28;20405;-56
2021/10/15 06:52:19;;;;;;;;;;;18.60;62.20;;;;;;5045125;28;19913;-55
2021/10/15 06:54:45;;;;;;;;;;;18.60;61.80;;;;;;5044183;28;19912;-56
2021/10/15 06:57:10;;;;;;;;;;;18.60;61.50;;;;;;5044100;28;20022;-55
2021/10/15 06:59:35;;;;;;;;;;;18.60;61.10;;;;;;5044400;28;20006;-55
2021/10/15 07:02:01;;;;;;;;;;;18.60;60.70;;;;;;5043808;28;20374;-58
2021/10/15 07:04:26;;;;;;;;;;;18.70;60.50;;;;;;5041386;28;19916;-53
2021/10/15 07:06:52;;;;;;;;;;;18.60;60.10;;;;;;5043451;28;19947;-54
2021/10/15 07:09:17;;;;;;;;;;;18.60;60.20;;;;;;5043858;28;19924;-57
2021/10/15 07:11:44;;;;;;;;;;;18.60;60.00;;;;;;5043126;28;19921;-52
2021/10/15 07:14:10;;;;;;;;;;;18.60;60.10;;;;;;5042248;28;19917;-57
2021/10/15 07:16:35;;;;;;;;;;;18.60;60.00;;;;;;5042689;28;19917;-57
2021/10/15 07:19:01;;;;;;;;;;;18.60;59.90;;;;;;5041523;28;19913;-52
2021/10/15 07:21:26;;;;;;;;;;;18.60;60.10;;;;;;5038016;28;19952;-56
2021/10/15 07:23:54;;;;;;;;;;;18.60;60.40;;;;;;5042269;28;19917;-57
2021/10/15 07:26:19;;;;;;;;;;;18.60;60.50;;;;;;5043262;28;19920;-57
2021/10/15 07:28:44;;;;;;;;;;;18.60;60.70;;;;;;5042964;28;19916;-58
2021/10/15 07:31:10;;;;;;;;;;;18.60;60.80;;;;;;5043358;28;19913;-54
2021/10/15 07:33:35;;;;;;;;;;;18.60;60.90;;;;;;5042525;28;19919;-54
2021/10/15 07:36:01;;;;;;;;;;;18.50;61.10;;;;;;5042435;28;19948;-54
2021/10/15 07:38:26;;;;;;;;;;;18.60;61.30;;;;;;5042631;28;19917;-55
2021/10/15 07:40:52;;;;;;;;;;;18.50;61.30;;;;;;5042538;28;19943;-58
2021/10/15 07:43:17;;;;;;;;;;;18.50;61.50;;;;;;5043189;28;19958;-54
2021/10/15 07:45:43;;;;;;;;;;;18.50;61.60;;;;;;5041737;28;19915;-56
2021/10/15 07:48:08;;;;;;;;;;;18.50;61.70;;;;;;5042414;28;19913;-56
2021/10/15 07:50:33;;;;;;;;;;;18.40;61.80;;;;;;5037629;28;19916;-55
2021/10/15 07:52:59;;;;;;;;;;;18.40;62.00;;;;;;5053159;28;19919;-56
2021/10/15 07:55:24;;;;;;;;;;;18.40;62.10;;;;;;5041059;28;20434;-58
2021/10/15 07:57:50;;;;;;;;;;;18.40;62.20;;;;;;5041522;28;19912;-57
2021/10/15 08:00:15;;;;;;;;;;;18.40;62.20;;;;;;5042943;28;19948;-55
2021/10/15 08:02:41;;;;;;;;;;;18.30;62.30;;;;;;5042427;28;19917;-55
2021/10/15 08:05:06;;;;;;;;;;;18.40;62.40;;;;;;5042894;28;19921;-54
2021/10/15 08:07:32;;;;;;;;;;;18.40;62.50;;;;;;5042276;28;19920;-57
2021/10/15 08:09:57;;;;;;;;;;;18.30;62.50;;;;;;5042048;28;19927;-56
2021/10/15 08:12:23;;;;;;;;;;;18.30;62.50;;;;;;5051380;22;20389;-58
2021/10/15 08:14:48;;;;;;;;;;;18.30;62.50;;;;;;5040511;28;19913;-58
2021/10/15 08:17:14;;;;;;;;;;;18.30;63.30;;;;;;5021534;28;20375;-59
2021/10/15 08:19:39;;;;;;;;;;;18.30;62.60;;;;;;5021938;28;19944;-58
2021/10/15 08:22:05;;;;;;;;;;;18.40;62.60;;;;;;5010351;28;19913;-58
2021/10/15 08:24:30;;;;;;;;;;;18.30;62.60;;;;;;5020882;28;19914;-58
2021/10/15 08:26:56;;;;;;;;;;;18.40;62.70;;;;;;5019787;28;19913;-59
2021/10/15 08:29:23;;;;;;;;;;;18.40;62.60;;;;;;5020763;28;19921;-59
2021/10/15 08:31:50;;;;;;;;;;;18.40;62.60;;;;;;4984259;28;20194;-59
2021/10/15 08:34:17;;;;;;;;;;;18.40;62.50;;;;;;5021737;28;19948;-59
2021/10/15 08:36:44;;;;;;;;;;;18.40;62.60;;;;;;5003794;28;19916;-59
2021/10/15 08:39:10;;;;;;;;;;;18.40;62.60;;;;;;5012471;28;19913;-58
2021/10/15 08:41:35;;;;;;;;;;;18.40;62.60;;;;;;5020975;28;19913;-60
2021/10/15 08:44:01;;;;;;;;;;;18.40;62.60;;;;;;5020607;28;19913;-58
2021/10/15 08:47:00;;;;;;;;;;;18.40;62.50;;;;;;5019162;28;19940;-60
2021/10/15 08:49:26;;;;;;;;;;;18.40;62.50;;;;;;5020333;28;19982;-59
2021/10/15 08:51:52;;;;;;;;;;;18.40;62.50;;;;;;5018942;28;20495;-56
2021/10/15 08:54:17;;;;;;;;;;;18.40;62.50;;;;;;5020281;28;19926;-58
2021/10/15 08:56:43;;;;;;;;;;;18.50;62.50;;;;;;5010496;28;19913;-59
2021/10/15 08:59:10;;;;;;;;;;;18.50;62.40;;;;;;5019924;28;21366;-58
2021/10/15 09:01:39;;;;;;;;;;;18.50;62.40;;;;;;5020870;28;19919;-57
2021/10/15 09:04:05;;;;;;;;;;;18.50;62.40;;;;;;5020550;28;19914;-59
2021/10/15 09:06:36;;;;;;;;;;;18.50;62.50;;;;;;5002368;28;19919;-59
2021/10/15 09:09:02;;;;;;;;;;;18.40;62.50;;;;;;5020119;28;20586;-59
2021/10/15 09:11:48;;;;;;;;;;;18.40;62.40;;;;;;5019955;28;19921;-59
2021/10/15 09:14:25;;;;;;;;;;;18.40;62.50;;;;;;5014723;28;20344;-59
2021/10/15 09:16:52;;;;;;;;;;;18.40;62.50;;;;;;5008425;28;19928;-59
2021/10/15 09:19:43;;;;;;;;;;;18.40;62.60;;;;;;5019371;28;19921;-57
2021/10/15 09:22:16;;;;;;;;;;;18.40;62.60;;;;;;5011689;28;19913;-59
2021/10/15 09:24:42;;;;;;;;;;;18.40;62.70;;;;;;5019545;28;19921;-59
2021/10/15 09:27:22;;;;;;;;;;;18.40;62.70;;;;;;5019417;28;19914;-59
2021/10/15 09:29:57;;;;;;;;;;;18.30;62.70;;;;;;5016298;28;20306;-58
2021/10/15 09:32:23;;;;;;;;;;;18.30;63.40;;;;;;5015437;28;19956;-57
2021/10/15 09:34:49;;;;;;;;;;;18.30;62.90;;;;;;5002140;28;20194;-58
2021/10/15 09:37:16;;;;;;;;;;;18.30;62.90;;;;;;5019059;28;20643;-56
2021/10/15 09:39:41;;;;;;;;;;;18.30;62.90;;;;;;5020575;28;20349;-59
2021/10/15 09:42:17;;;;;;;;;;;18.30;62.90;;;;;;5019049;28;19913;-58
2021/10/15 09:44:43;;;;;;;;;;;18.20;62.90;;;;;;5018960;28;19968;-61
2021/10/15 09:47:11;;;;;;;;;;;18.30;63.00;;;;;;5024322;28;19917;-57
2021/10/15 09:49:45;;;;;;;;;;;18.30;63.00;;;;;;5022680;28;19939;-56
2021/10/15 09:52:10;;;;;;;;;;;18.30;63.00;;;;;;5005920;28;19913;-58
2021/10/15 09:54:35;;;;;;;;;;;18.30;62.90;;;;;;5004869;28;19913;-58
2021/10/15 09:57:01;;;;;;;;;;;18.30;62.90;;;;;;5005478;28;19920;-57
2021/10/15 09:59:52;;;;;;;;;;;18.40;63.00;;;;;;5022238;28;20278;-57
2021/10/15 10:02:18;;;;;;;;;;;18.30;62.90;;;;;;4998487;28;20009;-61
2021/10/15 10:04:43;;;;;;;;;;;18.30;62.90;;;;;;5023758;28;19919;-59
2021/10/15 10:07:09;;;;;;;;;;;18.30;62.90;;;;;;5022739;28;19913;-56
2021/10/15 10:09:34;;;;;;;;;;;18.40;62.90;;;;;;5005586;28;19925;-59
2021/10/15 10:11:59;;;;;;;;;;;18.40;63.00;;;;;;5022921;28;20382;-57
2021/10/15 10:14:25;;;;;;;;;;;18.30;62.90;;;;;;5022735;28;19967;-56
2021/10/15 10:16:51;;;;;;;;;;;18.30;62.90;;;;;;5023826;28;19913;-57
2021/10/15 10:19:16;;;;;;;;;;;18.40;63.00;;;;;;5023204;28;19997;-58
2021/10/15 10:21:41;;;;;;;;;;;18.40;62.90;;;;;;5005912;28;19956;-58
2021/10/15 10:24:07;;;;;;;;;;;18.40;62.90;;;;;;5004674;28;19913;-58
2021/10/15 10:26:41;;;;;;;;;;;18.40;62.90;;;;;;5004785;28;22792;-58
2021/10/15 10:29:07;;;;;;;;;;;18.40;62.90;;;;;;5023115;28;19952;-59
2021/10/15 10:31:32;;;;;;;;;;;18.40;62.80;;;;;;5023792;28;19972;-57
2021/10/15 10:33:59;;;;;;;;;;;18.40;62.80;;;;;;5023351;28;19914;-56
2021/10/15 10:36:24;;;;;;;;;;;18.40;62.80;;;;;;5022828;28;19920;-59
2021/10/15 10:38:50;;;;;;;;;;;18.40;62.80;;;;;;5004111;28;19913;-59
2021/10/15 10:41:20;;;;;;;;;;;18.40;62.80;;;;;;5022899;28;19913;-59
2021/10/15 10:43:45;;;;;;;;;;;18.50;62.80;;;;;;5022879;28;19935;-59
2021/10/15 10:46:11;;;;;;;;;;;18.40;62.70;;;;;;5022987;28;20375;-58
2021/10/15 10:48:45;;;;;;;;;;;18.40;62.70;;;;;;5023191;28;19917;-58
2021/10/15 10:51:11;;;;;;;;;;;18.40;62.70;;;;;;5022999;28;19936;-57
2021/10/15 10:53:47;;;;;;;;;;;18.50;62.70;;;;;;5022993;28;20367;-59
2021/10/15 10:56:32;;;;;;;;;;;18.50;62.60;;;;;;5004762;28;20306;-58
2021/10/15 10:58:58;;;;;;;;;;;18.50;62.60;;;;;;5014820;28;20375;-59
2021/10/15 11:01:27;;;;;;;;;;;18.50;62.60;;;;;;5005452;28;19914;-58
2021/10/15 11:03:54;;;;;;;;;;;18.50;62.70;;;;;;5005745;28;19967;-57
2021/10/15 11:06:19;;;;;;;;;;;18.50;62.60;;;;;;5004915;28;19917;-59
2021/10/15 11:08:46;;;;;;;;;;;18.50;62.50;;;;;;5004738;28;19917;-59
2021/10/15 11:11:23;;;;;;;;;;;18.50;62.50;;;;;;5022117;28;19920;-58
2021/10/15 11:13:49;;;;;;;;;;;18.50;62.60;;;;;;5021937;28;19982;-58
2021/10/15 11:16:21;;;;;;;;;;;18.50;62.60;;;;;;5022296;28;20382;-60
2021/10/15 11:18:46;;;;;;;;;;;18.50;62.50;;;;;;5021065;28;20421;-59
2021/10/15 11:21:12;;;;;;;;;;;18.50;62.40;;;;;;5022985;28;19913;-55
2021/10/15 11:23:39;;;;;;;;;;;18.50;62.40;;;;;;5000107;28;19913;-59
2021/10/15 11:26:04;;;;;;;;;;;18.50;62.40;;;;;;5001424;28;20394;-59
2021/10/15 11:28:31;;;;;;;;;;;18.50;62.30;;;;;;5020331;28;19920;-58
2021/10/15 11:30:56;;;;;;;;;;;18.50;62.40;;;;;;4977063;28;19913;-58
2021/10/15 11:33:22;;;;;;;;;;;18.50;62.40;;;;;;5022519;28;19913;-56
2021/10/15 11:35:50;;;;;;;;;;;18.50;62.50;;;;;;5004610;28;20032;-59
2021/10/15 11:38:19;;;;;;;;;;;18.50;62.50;;;;;;5022950;28;19913;-59
2021/10/15 11:40:48;;;;;;;;;;;18.50;62.50;;;;;;5004528;28;19920;-57
2021/10/15 11:43:24;;;;;;;;;;;18.50;62.40;;;;;;5020712;28;20636;-57
2021/10/15 11:46:05;;;;;;;;;;;18.50;62.50;;;;;;5001841;28;19975;-60
2021/10/15 11:48:34;;;;;;;;;;;18.50;62.40;;;;;;5019037;28;19913;-58
2021/10/15 11:51:09;;;;;;;;;;;18.50;62.40;;;;;;5004461;28;20027;-58
2021/10/15 11:53:37;;;;;;;;;;;18.50;62.40;;;;;;5018104;28;20414;-58
2021/10/15 11:56:07;;;;;;;;;;;18.50;62.40;;;;;;5004282;28;19995;-58
2021/10/15 11:58:33;;;;;;;;;;;18.60;62.40;;;;;;5003476;28;20586;-57
2021/10/15 12:01:05;;;;;;;;;;;18.50;62.40;;;;;;5005565;28;20405;-58
2021/10/15 12:03:31;;;;;;;;;;;18.50;62.40;;;;;;5021330;28;19920;-58
2021/10/15 12:06:16;;;;;;;;;;;18.60;62.40;;;;;;5005447;28;19917;-55
2021/10/15 12:08:41;;;;;;;;;;;18.50;62.30;;;;;;5021453;28;19991;-58
2021/10/15 12:11:11;;;;;;;;;;;18.60;62.30;;;;;;4989303;28;20414;-58
2021/10/15 12:13:37;;;;;;;;;;;18.60;62.30;;;;;;5010699;28;19971;-58
2021/10/15 12:16:16;;;;;;;;;;;18.60;62.30;;;;;;4990368;28;20007;-58
2021/10/15 12:18:41;;;;;;;;;;;18.60;62.30;;;;;;5007522;28;19996;-59
2021/10/15 12:21:10;;;;;;;;;;;18.60;62.30;;;;;;4981333;28;20412;-57
2021/10/15 12:23:50;;;;;;;;;;;18.60;62.30;;;;;;5010769;28;19914;-58
2021/10/15 12:26:17;;;;;;;;;;;18.60;62.30;;;;;;5009292;28;19913;-55
2021/10/15 12:28:42;;;;;;;;;;;18.60;62.30;;;;;;5020453;28;19928;-59
2021/10/15 12:31:21;;;;;;;;;;;18.60;62.30;;;;;;5005511;28;20627;-58
2021/10/15 12:34:03;;;;;;;;;;;18.60;62.30;;;;;;5012376;28;19913;-59
2021/10/15 12:36:28;;;;;;;;;;;18.60;62.30;;;;;;5019271;28;19920;-58
2021/10/15 12:39:12;;;;;;;;;;;18.60;62.30;;;;;;5007962;28;20284;-59
2021/10/15 12:41:37;;;;;;;;;;;18.60;62.30;;;;;;5021015;28;19914;-59
2021/10/15 12:44:16;;;;;;;;;;;18.60;62.30;;;;;;5009125;28;19979;-55
2021/10/15 12:46:52;;;;;;;;;;;18.60;62.30;;;;;;5020786;28;19921;-57
2021/10/15 12:49:17;;;;;;;;;;;18.60;62.30;;;;;;5007562;28;20447;-56
2021/10/15 12:51:43;;;;;;;;;;;18.60;62.30;;;;;;5021120;28;19913;-59
2021/10/15 12:54:08;;;;;;;;;;;18.60;62.30;;;;;;5008275;28;19930;-60
2021/10/15 12:56:34;;;;;;;;;;;18.60;62.30;;;;;;5020544;28;19924;-59
2021/10/15 12:59:00;;;;;;;;;;;18.60;62.30;;;;;;5008800;28;20469;-59
2021/10/15 13:01:26;;;;;;;;;;;18.60;62.30;;;;;;5020536;28;19913;-58
2021/10/15 13:03:51;;;;;;;;;;;18.60;62.30;;;;;;5009240;28;19913;-57
2021/10/15 13:06:17;;;;;;;;;;;18.60;62.20;;;;;;5018994;28;20004;-59
2021/10/15 13:08:48;;;;;;;;;;;18.60;62.20;;;;;;5022241;28;19925;-56
2021/10/15 13:11:17;;;;;;;;;;;18.60;62.80;;;;;;4991067;28;20712;-59
2021/10/15 13:13:43;;;;;;;;;;;18.60;62.10;;;;;;5022499;28;20501;-57
2021/10/15 13:16:09;;;;;;;;;;;18.60;62.10;;;;;;5006605;28;20028;-57
2021/10/15 13:18:34;;;;;;;;;;;18.70;62.20;;;;;;5022038;28;20508;-59
2021/10/15 13:20:59;;;;;;;;;;;18.60;62.10;;;;;;5009535;28;19914;-55
2021/10/15 13:23:25;;;;;;;;;;;18.70;62.10;;;;;;5026279;28;19913;-58
2021/10/15 13:25:50;;;;;;;;;;;18.70;62.10;;;;;;4992503;28;19971;-57
2021/10/15 13:28:16;;;;;;;;;;;18.60;62.20;;;;;;5026053;28;20382;-58
2021/10/15 13:30:41;;;;;;;;;;;18.70;62.10;;;;;;5009478;28;19921;-59
2021/10/15 13:33:08;;;;;;;;;;;18.70;62.20;;;;;;5025444;28;19924;-61
2021/10/15 13:35:33;;;;;;;;;;;18.70;62.10;;;;;;5009861;28;19921;-58
2021/10/15 13:38:06;;;;;;;;;;;18.60;62.20;;;;;;5007183;28;20337;-59
2021/10/15 13:40:39;;;;;;;;;;;18.60;62.10;;;;;;5008885;28;19925;-57
2021/10/15 13:43:10;;;;;;;;;;;18.70;62.20;;;;;;5025034;28;19913;-58
2021/10/15 13:45:40;;;;;;;;;;;18.70;62.10;;;;;;5008390;28;19948;-59
2021/10/15 13:50:50;;;;;;;;;;;18.70;62.10;;;;;;5008765;28;20393;-59
2021/10/15 13:53:15;;;;;;;;;;;18.70;62.10;;;;;;5025592;28;19913;-59
2021/10/15 13:58:33;;;;;;;;;;;18.70;62.10;;;;;;5025261;28;20004;-59
2021/10/15 14:01:02;;;;;;;;;;;18.70;62.10;;;;;;5006839;28;19913;-57
2021/10/15 14:06:02;;;;;;;;;;;18.70;62.00;;;;;;5007054;28;20007;-59
2021/10/15 14:08:27;;;;;;;;;;;18.70;62.00;;;;;;4999785;28;19982;-58
2021/10/15 14:10:54;;;;;;;;;;;18.70;62.00;;;;;;5008840;28;20406;-57
2021/10/15 14:13:30;;;;;;;;;;;18.70;62.00;;;;;;5040349;28;19925;-72
2021/10/15 14:15:56;;;;;;;;;;;18.70;62.00;;;;;;5045144;28;19913;-73
2021/10/15 14:18:21;;;;;;;;;;;18.70;62.00;;;;;;5027427;28;19916;-73
2021/10/15 14:20:47;;;;;;;;;;;18.70;62.10;;;;;;5028048;28;20367;-73
2021/10/15 14:23:12;;;;;;;;;;;18.70;62.00;;;;;;5026734;28;19913;-73
2021/10/15 14:25:38;;;;;;;;;;;18.70;62.00;;;;;;5045031;28;19927;-73
2021/10/15 14:28:04;;;;;;;;;;;18.70;62.00;;;;;;5045812;28;19978;-73
2021/10/15 14:30:29;;;;;;;;;;;18.70;62.00;;;;;;5026883;28;20414;-73
2021/10/15 14:32:55;;;;;;;;;;;18.70;62.10;;;;;;5045985;28;19923;-73
2021/10/15 14:35:20;;;;;;;;;;;18.70;62.10;;;;;;5046069;28;20322;-73
2021/10/15 14:37:46;;;;;;;;;;;18.70;62.00;;;;;;5046553;28;19913;-74
2021/10/15 14:40:11;;;;;;;;;;;18.70;62.00;;;;;;5046865;28;19979;-71